createdAt,value
2023-01-19T00:01:34.280Z,29.50
2023-01-19T00:04:51.361Z,29.68
2023-01-19T00:08:09.992Z,30.28
2023-01-19T00:11:26.623Z,31.68
2023-01-19T00:14:42.878Z,31.25
2023-01-19T00:17:59.377Z,32.73
2023-01-19T00:21:16.604Z,30.30
2023-01-19T00:24:33.635Z,31.68
2023-01-19T00:27:51.251Z,32.98
2023-01-19T00:31:07.897Z,29.93
2023-01-19T00:34:27.695Z,31.75
2023-01-19T00:37:46.041Z,30.85
2023-01-19T00:41:03.152Z,32.03
2023-01-19T00:44:20.978Z,33.48
2023-01-19T00:47:40.053Z,30.95
2023-01-19T00:50:58.225Z,30.65
2023-01-19T00:54:14.532Z,32.03
2023-01-19T00:57:30.858Z,38.00
2023-01-19T01:00:47.123Z,32.58
2023-01-19T01:04:03.620Z,32.83
2023-01-19T01:07:19.943Z,31.13
2023-01-19T01:10:38.164Z,33.43
2023-01-19T01:13:54.431Z,31.63
2023-01-19T01:17:12.114Z,29.80
2023-01-19T01:20:31.802Z,34.00
2023-01-19T01:23:48.099Z,34.88
2023-01-19T01:27:04.664Z,36.50
2023-01-19T01:30:23.665Z,36.83
2023-01-19T01:33:42.008Z,29.98
2023-01-19T01:36:58.921Z,34.40
2023-01-19T01:40:22.137Z,34.85
2023-01-19T01:43:54.228Z,39.28
2023-01-19T01:47:11.436Z,37.63
2023-01-19T01:50:32.462Z,35.78
2023-01-19T01:53:50.615Z,36.18
2023-01-19T01:57:12.138Z,36.83
2023-01-19T02:00:37.159Z,38.88
2023-01-19T02:03:53.484Z,40.93
2023-01-19T02:07:23.714Z,38.50
2023-01-19T02:10:54.521Z,38.85
2023-01-19T02:14:13.892Z,37.10
2023-01-19T02:17:30.820Z,38.38
2023-01-19T02:20:51.946Z,40.40
2023-01-19T02:24:10.899Z,38.55
2023-01-19T02:27:28.697Z,43.83
2023-01-19T02:30:47.236Z,44.93
2023-01-19T02:34:05.690Z,42.90
2023-01-19T02:37:24.219Z,43.63
2023-01-19T02:40:41.725Z,42.08
2023-01-19T02:43:59.807Z,40.48
2023-01-19T02:47:16.296Z,42.13
2023-01-19T02:50:58.187Z,44.10
2023-01-19T02:54:51.765Z,48.23
2023-01-19T02:58:13.701Z,50.18
2023-01-19T03:01:36.392Z,49.53
2023-01-19T03:05:04.982Z,45.50
2023-01-19T03:08:27.394Z,42.80
2023-01-19T03:11:47.564Z,46.78
2023-01-19T03:15:07.685Z,47.48
2023-01-19T03:18:28.811Z,45.35
2023-01-19T03:21:51.088Z,45.43
2023-01-19T03:25:09.541Z,48.75
2023-01-19T03:28:28.954Z,46.13
2023-01-19T03:31:49.578Z,48.65
2023-01-19T03:35:11.254Z,44.08
2023-01-19T03:38:32.407Z,45.43
2023-01-19T03:41:51.023Z,50.38
2023-01-19T03:45:10.914Z,51.60
2023-01-19T03:48:28.157Z,49.78
2023-01-19T03:51:47.351Z,49.15
2023-01-19T03:55:04.695Z,52.93
2023-01-19T03:58:21.299Z,52.10
2023-01-19T04:01:37.785Z,48.08
2023-01-19T04:04:54.260Z,48.08
2023-01-19T04:08:14.485Z,45.78
2023-01-19T04:11:34.115Z,48.05
2023-01-19T04:14:50.493Z,45.80
2023-01-19T04:18:09.445Z,48.03
2023-01-19T04:21:27.178Z,48.13
2023-01-19T04:24:43.918Z,45.03
2023-01-19T04:28:03.382Z,41.23
2023-01-19T04:31:20.096Z,44.08
2023-01-19T04:34:36.295Z,46.30
2023-01-19T04:37:52.638Z,47.70
2023-01-19T04:41:09.021Z,43.50
2023-01-19T04:44:25.242Z,44.63
2023-01-19T04:47:43.313Z,46.38
2023-01-19T04:51:00.763Z,45.43
2023-01-19T04:54:17.100Z,45.70
2023-01-19T04:57:33.358Z,48.13
2023-01-19T05:00:49.734Z,41.30
2023-01-19T05:04:09.252Z,43.65
2023-01-19T05:10:39.101Z,44.18
2023-01-19T05:13:55.264Z,46.08
2023-01-19T05:17:11.466Z,43.75
2023-01-19T05:20:28.250Z,45.40
2023-01-19T05:23:44.453Z,45.48
2023-01-19T05:27:01.010Z,45.68
2023-01-19T05:30:20.340Z,51.88
2023-01-19T05:33:36.725Z,52.55
2023-01-19T05:36:53.356Z,49.53
2023-01-19T05:40:09.920Z,53.35
2023-01-19T05:43:28.687Z,55.80
2023-01-19T05:46:45.257Z,54.45
2023-01-19T05:50:04.651Z,55.23
2023-01-19T05:53:21.473Z,54.65
2023-01-19T05:56:39.517Z,57.18
2023-01-19T05:59:55.917Z,53.13
2023-01-19T06:03:12.066Z,57.35
2023-01-19T06:06:28.488Z,54.55
2023-01-19T06:09:44.931Z,58.68
2023-01-19T06:13:01.607Z,57.05
2023-01-19T06:16:20.065Z,59.43
2023-01-19T06:19:37.648Z,57.08
2023-01-19T06:22:54.691Z,56.63
2023-01-19T06:26:11.688Z,61.58
2023-01-19T06:29:29.447Z,53.08
2023-01-19T06:32:46.151Z,55.98
2023-01-19T06:36:03.326Z,53.18
2023-01-19T06:39:20.858Z,48.60
2023-01-19T06:42:38.320Z,52.85
2023-01-19T06:45:56.979Z,53.20
2023-01-19T06:49:13.522Z,53.37
2023-01-19T06:52:29.981Z,56.30
2023-01-19T06:55:46.278Z,59.23
2023-01-19T06:59:02.927Z,53.90
2023-01-19T07:02:26.913Z,58.48
2023-01-19T07:05:41.952Z,57.08
2023-01-19T07:08:58.758Z,53.20
2023-01-19T07:12:25.395Z,57.68
2023-01-19T07:18:59.535Z,57.43
2023-01-19T07:22:16.206Z,53.83
2023-01-19T07:25:49.749Z,57.05
2023-01-19T07:29:08.010Z,53.50
2023-01-19T07:32:27.990Z,56.63
2023-01-19T07:35:44.244Z,57.38
2023-01-19T07:39:01.152Z,53.83
2023-01-19T07:42:21.202Z,48.88
2023-01-19T07:45:38.014Z,56.38
2023-01-19T07:49:07.438Z,56.23
2023-01-19T07:52:24.654Z,53.40
2023-01-19T07:55:41.339Z,63.85
2023-01-19T07:59:00.205Z,62.98
2023-01-19T08:02:20.356Z,59.20
2023-01-19T08:05:37.735Z,65.65
2023-01-19T08:08:55.447Z,68.90
2023-01-19T08:12:12.979Z,70.03
2023-01-19T08:15:30.861Z,68.05
2023-01-19T08:18:47.249Z,65.70
2023-01-19T08:22:12.171Z,62.70
2023-01-19T08:25:30.229Z,148.18
2023-01-19T08:28:46.465Z,73.45
2023-01-19T08:32:19.379Z,61.83
2023-01-19T08:35:51.065Z,61.58
2023-01-19T08:39:13.218Z,53.85
2023-01-19T08:42:32.737Z,57.45
2023-01-19T08:45:54.287Z,52.98
2023-01-19T08:49:10.633Z,53.28
2023-01-19T08:52:30.162Z,52.93
2023-01-19T08:55:47.289Z,54.95
2023-01-19T08:59:09.967Z,56.83
2023-01-19T09:02:27.807Z,62.93
2023-01-19T09:05:46.468Z,65.13
2023-01-19T09:09:02.819Z,64.30
2023-01-19T09:12:19.228Z,77.90
2023-01-19T09:15:38.390Z,62.23
2023-01-19T09:18:54.892Z,59.83
2023-01-19T09:22:11.032Z,66.05
2023-01-19T09:25:27.518Z,68.93
2023-01-19T09:28:44.987Z,65.23
2023-01-19T09:32:01.086Z,64.45
2023-01-19T09:35:18.782Z,61.95
2023-01-19T09:38:36.603Z,73.48
2023-01-19T09:41:57.413Z,59.58
2023-01-19T09:45:20.896Z,63.15
2023-01-19T09:48:50.586Z,62.20
2023-01-19T09:52:08.897Z,65.13
2023-01-19T09:55:31.554Z,61.53
2023-01-19T09:58:51.176Z,60.08
2023-01-19T10:05:39.549Z,67.68
2023-01-19T10:09:01.015Z,70.20
2023-01-19T10:12:24.081Z,67.08
2023-01-19T10:15:55.839Z,62.08
2023-01-19T10:19:23.553Z,68.08
2023-01-19T10:22:44.040Z,68.70
2023-01-19T10:26:01.109Z,56.43
2023-01-19T10:29:24.218Z,60.13
2023-01-19T10:32:47.957Z,56.00
2023-01-19T10:36:04.645Z,56.13
2023-01-19T10:39:24.517Z,59.98
2023-01-19T10:42:41.129Z,55.90
2023-01-19T10:45:59.816Z,55.65
2023-01-19T10:49:30.913Z,53.10
2023-01-19T10:52:50.462Z,48.15
2023-01-19T10:56:25.995Z,49.35
2023-01-19T10:59:46.771Z,50.00
2023-01-19T11:03:04.197Z,53.40
2023-01-19T11:06:37.257Z,51.93
2023-01-19T11:09:54.586Z,45.55
2023-01-19T11:13:17.349Z,43.48
2023-01-19T11:16:42.668Z,47.33
2023-01-19T11:20:10.271Z,46.50
2023-01-19T11:23:38.403Z,45.08
2023-01-19T11:27:01.688Z,46.35
2023-01-19T11:30:26.846Z,45.18
2023-01-19T11:33:51.897Z,44.98
2023-01-19T11:37:11.583Z,60.03
2023-01-19T11:40:28.808Z,48.78
2023-01-19T11:43:49.360Z,44.90
2023-01-19T11:47:10.625Z,39.93
2023-01-19T11:50:39.464Z,44.75
2023-01-19T11:54:00.436Z,42.75
2023-01-19T11:57:22.566Z,38.93
2023-01-19T12:00:46.691Z,37.25
2023-01-19T12:04:10.040Z,39.60
2023-01-19T12:10:47.278Z,37.10
2023-01-19T12:14:06.414Z,38.48
2023-01-19T12:17:30.014Z,40.35
2023-01-19T12:20:49.685Z,38.70
2023-01-19T12:24:19.941Z,40.15
2023-01-19T12:27:48.786Z,40.98
2023-01-19T12:31:09.952Z,34.83
2023-01-19T12:34:49.792Z,35.00
2023-01-19T12:41:40.520Z,37.18
2023-01-19T12:45:00.687Z,36.88
2023-01-19T12:48:32.416Z,39.60
2023-01-19T12:51:49.488Z,37.55
2023-01-19T12:55:23.861Z,37.90
2023-01-19T12:58:42.048Z,40.35
2023-01-19T13:02:56.453Z,42.25
2023-01-19T13:09:44.015Z,41.53
2023-01-19T13:13:25.393Z,43.88
2023-01-19T13:17:17.462Z,43.58
2023-01-19T13:20:47.164Z,46.78
2023-01-19T13:24:08.009Z,44.55
2023-01-19T13:27:43.325Z,47.58
2023-01-19T13:31:08.022Z,49.95
2023-01-19T13:34:28.793Z,54.40
2023-01-19T13:41:03.860Z,55.65
2023-01-19T13:44:24.586Z,67.75
2023-01-19T13:47:47.518Z,60.80
2023-01-19T13:56:31.135Z,65.23
2023-01-19T13:59:47.600Z,65.73
2023-01-19T14:03:08.047Z,66.55
2023-01-19T14:06:47.645Z,69.03
2023-01-19T14:10:20.524Z,66.45
2023-01-19T14:13:41.809Z,64.08
2023-01-19T14:17:00.225Z,63.70
2023-01-19T14:20:38.130Z,65.25
2023-01-19T14:24:00.139Z,60.95
2023-01-19T14:27:29.541Z,66.45
2023-01-19T14:31:00.012Z,63.88
2023-01-19T14:34:45.012Z,59.88
2023-01-19T14:41:17.852Z,57.00
2023-01-19T14:44:40.916Z,59.45
2023-01-19T14:48:07.257Z,61.00
2023-01-19T14:51:27.964Z,55.78
2023-01-19T14:56:00.555Z,54.15
2023-01-19T15:04:12.947Z,59.03
2023-01-19T15:10:50.372Z,54.08
2023-01-19T15:14:07.661Z,53.10
2023-01-19T15:17:30.916Z,51.05
2023-01-19T15:20:47.189Z,53.18
2023-01-19T15:27:24.585Z,50.40
2023-01-19T15:30:43.989Z,47.48
2023-01-19T15:34:00.947Z,46.80
2023-01-19T15:40:46.932Z,47.90
2023-01-19T15:44:11.165Z,52.28
2023-01-19T15:47:33.502Z,47.98
2023-01-19T15:54:08.859Z,53.45
2023-01-19T15:57:26.338Z,50.98
2023-01-19T16:00:45.274Z,45.50
2023-01-19T16:04:01.698Z,49.53
2023-01-19T16:07:19.077Z,47.23
2023-01-19T16:10:35.650Z,47.80
2023-01-19T16:13:56.276Z,48.47
2023-01-19T16:17:13.039Z,44.13
2023-01-19T16:20:29.777Z,45.98
2023-01-19T16:23:46.332Z,45.88
2023-01-19T16:27:04.811Z,41.90
2023-01-19T16:30:25.053Z,43.40
2023-01-19T16:33:41.582Z,41.25
2023-01-19T16:37:01.007Z,39.65
2023-01-19T16:40:21.161Z,40.75
2023-01-19T16:43:37.456Z,40.00
2023-01-19T16:46:55.363Z,42.70
2023-01-19T16:50:14.127Z,37.98
2023-01-19T16:53:30.519Z,39.45
2023-01-19T16:56:47.277Z,39.70
2023-01-19T17:00:03.590Z,37.80
2023-01-19T17:03:20.390Z,38.78
2023-01-19T17:06:36.803Z,33.78
2023-01-19T17:09:53.016Z,36.03
2023-01-19T17:13:09.550Z,33.65
2023-01-19T17:16:26.768Z,35.20
2023-01-19T17:19:45.845Z,34.05
2023-01-19T17:23:02.491Z,33.75
2023-01-19T17:26:21.915Z,33.53
2023-01-19T17:29:40.193Z,35.00
2023-01-19T17:33:03.411Z,41.88
2023-01-19T17:36:25.900Z,38.25
2023-01-19T17:39:44.063Z,38.58
2023-01-19T17:43:00.542Z,35.20
2023-01-19T17:46:22.123Z,35.83
2023-01-19T17:49:38.861Z,36.25
2023-01-19T17:52:57.257Z,38.13
2023-01-19T17:56:17.111Z,35.40
2023-01-19T17:59:35.784Z,37.93
2023-01-19T18:02:56.872Z,35.23
2023-01-19T18:06:14.797Z,37.15
2023-01-19T18:09:32.786Z,36.55
2023-01-19T18:12:50.518Z,33.53
2023-01-19T18:16:14.721Z,36.73
2023-01-19T18:19:32.039Z,38.83
2023-01-19T18:22:48.992Z,33.85
2023-01-19T18:26:15.245Z,35.95
2023-01-19T18:29:31.910Z,34.33
2023-01-19T18:32:48.383Z,34.90
2023-01-19T18:36:08.435Z,85.10
2023-01-19T18:39:25.052Z,41.28
2023-01-19T18:42:51.027Z,39.28
2023-01-19T18:46:09.384Z,37.58
2023-01-19T18:49:33.065Z,37.78
2023-01-19T18:52:58.440Z,38.13
2023-01-19T18:56:16.996Z,41.18
2023-01-19T18:59:37.036Z,37.78
2023-01-19T19:06:12.873Z,36.65
2023-01-19T19:09:32.358Z,37.80
2023-01-19T19:12:51.642Z,39.05
2023-01-19T19:16:18.933Z,43.75
2023-01-19T19:19:41.920Z,42.30
2023-01-19T19:22:58.751Z,44.15
2023-01-19T19:26:18.671Z,44.40
2023-01-19T19:29:44.908Z,50.45
2023-01-19T19:33:08.859Z,50.78
2023-01-19T19:36:26.021Z,48.63
2023-01-19T19:39:47.334Z,51.05
2023-01-19T19:43:08.472Z,51.35
2023-01-19T19:46:30.008Z,52.88
2023-01-19T19:49:49.302Z,52.18
2023-01-19T19:53:12.712Z,50.78
2023-01-19T19:56:31.571Z,55.38
2023-01-19T19:59:49.284Z,56.08
2023-01-19T20:03:05.630Z,55.78
2023-01-19T20:06:30.808Z,60.03
2023-01-19T20:09:48.387Z,60.03
2023-01-19T20:13:09.229Z,60.40
2023-01-19T20:16:29.080Z,58.25
2023-01-19T20:19:48.571Z,88.42
2023-01-19T20:23:05.478Z,55.05
2023-01-19T20:26:27.470Z,51.23
2023-01-19T20:29:51.467Z,51.80
2023-01-19T20:33:11.828Z,54.65
2023-01-19T20:36:36.389Z,54.85
2023-01-19T20:39:57.443Z,54.43
2023-01-19T20:43:16.107Z,53.33
2023-01-19T20:46:37.336Z,47.90
2023-01-19T20:49:54.684Z,52.33
2023-01-19T20:53:11.289Z,50.75
2023-01-19T20:56:28.284Z,46.48
2023-01-19T20:59:45.901Z,50.80
2023-01-19T21:03:02.511Z,45.75
2023-01-19T21:06:19.857Z,48.30
2023-01-19T21:09:36.598Z,49.88
2023-01-19T21:12:53.095Z,48.48
2023-01-19T21:16:12.492Z,48.18
2023-01-19T21:19:29.063Z,49.53
2023-01-19T21:22:46.467Z,49.33
2023-01-19T21:26:05.793Z,53.28
2023-01-19T21:32:36.132Z,48.98
2023-01-19T21:36:00.210Z,49.60
2023-01-19T21:39:17.510Z,51.23
2023-01-19T21:42:34.417Z,53.78
2023-01-19T21:45:51.595Z,49.48
2023-01-19T21:49:11.577Z,56.03
2023-01-19T21:52:27.785Z,52.45
2023-01-19T21:55:46.551Z,54.93
2023-01-19T21:59:04.167Z,53.20
2023-01-19T22:02:37.740Z,51.23
2023-01-19T22:05:44.109Z,55.48
2023-01-19T22:09:01.532Z,53.00
2023-01-19T22:12:18.224Z,58.05
2023-01-19T22:15:35.980Z,55.70
2023-01-19T22:18:59.547Z,58.05
2023-01-19T22:22:15.912Z,54.73
2023-01-19T22:25:32.872Z,57.25
2023-01-19T22:28:50.838Z,58.13
2023-01-19T22:32:07.007Z,57.90
2023-01-19T22:35:25.109Z,57.48
2023-01-19T22:38:41.488Z,59.55
2023-01-19T22:41:58.079Z,60.93
2023-01-19T22:45:16.533Z,60.73
2023-01-19T22:48:32.888Z,56.13
2023-01-19T22:51:49.320Z,60.50
2023-01-19T22:55:05.659Z,60.10
2023-01-19T22:58:22.310Z,62.15
2023-01-19T23:01:42.552Z,57.68
2023-01-19T23:04:59.340Z,57.68
2023-01-19T23:08:16.345Z,57.05
2023-01-19T23:11:36.092Z,56.20
2023-01-19T23:14:53.662Z,54.20
2023-01-19T23:18:09.896Z,56.88
2023-01-19T23:21:28.886Z,51.18
2023-01-19T23:24:45.496Z,54.38
2023-01-19T23:28:01.813Z,53.70
2023-01-19T23:31:28.624Z,53.33
2023-01-19T23:34:45.310Z,56.53
2023-01-19T23:38:01.475Z,53.45
2023-01-19T23:41:18.798Z,52.58
2023-01-19T23:44:35.006Z,51.28
2023-01-19T23:47:51.593Z,51.45
2023-01-19T23:51:12.499Z,48.63
2023-01-19T23:54:28.834Z,46.05
2023-01-19T23:57:45.138Z,46.33
